^^
Meteo Knjazevac Station Historical Data
Daily Summary for April 25, 2021 Units:  Metric    English   Both
Daily Weekly Monthly Yearly Custom
  High: Low: Average:
Temperature: 32.3 °C 12.5 °C 22.8 °C
Dew Point: 21.5 °C 11.9 °C 16.6 °C
Humidity: 99% 38% 72%
Wind Speed: 11.3km/h 0km/h 2.7km/h
Wind Gust: 24.1km/h - -
Wind- - SSW
Pressure: 1019.9 hPa 1017.2 hPa -
Precipitation: 0 mm    
Historical Graphs
 
 
Tabular Data for April 25, 2021
Time Temperature Dew Point Pressure Wind Wind Speed Wind Gust Humidity Rainfall Rate (Hourly) solar Conditions
00:00 17.1 °C 15.1 °C 1018.8 hPa West 1.6 km/h 4.8 km/h 88% 0 mm 0 W/m2
00:10 16.9 °C 15.1 °C 1018.8 hPa West 1.6 km/h 3.2 km/h 89% 0 mm 0 W/m2
00:20 16.7 °C 14.9 °C 1018.8 hPa Calm   3.2 km/h 89% 0 mm 0 W/m2
00:30 16.6 °C 14.8 °C 1018.8 hPa West 1.6 km/h 4.8 km/h 89% 0 mm 0 W/m2
00:40 16.5 °C 14.8 °C 1018.8 hPa Calm   4.8 km/h 90% 0 mm 0 W/m2
00:50 16.3 °C 14.7 °C 1018.8 hPa Calm   3.2 km/h 90% 0 mm 0 W/m2
01:00 16.1 °C 14.4 °C 1018.8 hPa Calm   1.6 km/h 90% 0 mm 0 W/m2
01:10 15.9 °C 14.3 °C 1018.8 hPa WNW 1.6 km/h 3.2 km/h 90% 0 mm 0 W/m2
01:20 15.7 °C 14.2 °C 1019.2 hPa Calm   3.2 km/h 91% 0 mm 0 W/m2
01:30 15.5 °C 14.1 °C 1018.8 hPa Calm   3.2 km/h 91% 0 mm 0 W/m2
01:40 15.3 °C 13.8 °C 1018.8 hPa Calm   3.2 km/h 91% 0 mm 0 W/m2
01:50 15.1 °C 14 °C 1018.8 hPa WNW 3.2 km/h 8 km/h 93% 0 mm 0 W/m2
02:00 15 °C 13.9 °C 1018.8 hPa West 1.6 km/h 8 km/h 93% 0 mm 0 W/m2
02:10 14.8 °C 13.8 °C 1018.8 hPa West 4.8 km/h 11.3 km/h 94% 0 mm 0 W/m2
02:20 14.6 °C 13.7 °C 1018.8 hPa WSW 3.2 km/h 9.7 km/h 94% 0 mm 0 W/m2
02:30 14.4 °C 13.4 °C 1018.8 hPa West 3.2 km/h 9.7 km/h 94% 0 mm 0 W/m2
02:40 14.4 °C 13.4 °C 1018.8 hPa West 3.2 km/h 9.7 km/h 94% 0 mm 0 W/m2
02:50 14.3 °C 13.4 °C 1018.8 hPa WSW 1.6 km/h 4.8 km/h 94% 0 mm 0 W/m2
03:00 14.3 °C 13.3 °C 1018.8 hPa West 3.2 km/h 3.2 km/h 94% 0 mm 0 W/m2
03:10 14.1 °C 13.2 °C 1018.5 hPa WSW 1.6 km/h 3.2 km/h 94% 0 mm 0 W/m2
03:20 14.1 °C 13.2 °C 1018.5 hPa West 1.6 km/h 3.2 km/h 94% 0 mm 0 W/m2
03:30 13.9 °C 12.9 °C 1018.8 hPa WNW 1.6 km/h 3.2 km/h 94% 0 mm 0 W/m2
03:40 13.8 °C 13 °C 1018.5 hPa Calm   3.2 km/h 95% 0 mm 0 W/m2
03:50 13.6 °C 12.7 °C 1018.5 hPa Calm   3.2 km/h 94% 0 mm 0 W/m2
04:00 13.5 °C 12.7 °C 1018.5 hPa WNW 3.2 km/h 4.8 km/h 95% 0 mm 0 W/m2
04:10 13.3 °C 12.5 °C 1018.5 hPa WNW 3.2 km/h 8 km/h 95% 0 mm 0 W/m2
04:20 13.3 °C 12.7 °C 1018.8 hPa West 3.2 km/h 8 km/h 96% 0 mm 0 W/m2
04:30 13.1 °C 12.5 °C 1019.2 hPa West 4.8 km/h 9.7 km/h 96% 0 mm 0 W/m2
04:40 13.1 °C 12.3 °C 1019.2 hPa Calm   8 km/h 95% 0 mm 0 W/m2
04:50 12.9 °C 12.1 °C 1019.2 hPa Calm   3.2 km/h 95% 0 mm 0 W/m2
05:00 12.9 °C 12.3 °C 1019.2 hPa Calm     96% 0 mm 0 W/m2
05:10 12.8 °C 12 °C 1019.5 hPa NW 1.6 km/h 3.2 km/h 95% 0 mm 0 W/m2
05:20 12.9 °C 12.3 °C 1019.5 hPa Calm   3.2 km/h 96% 0 mm 6 W/m2
05:30 12.9 °C 12.3 °C 1019.5 hPa Calm   3.2 km/h 96% 0 mm 12 W/m2
05:40 12.9 °C 12.3 °C 1019.5 hPa NW 1.6 km/h 6.4 km/h 96% 0 mm 20 W/m2
05:50 12.7 °C 11.9 °C 1019.5 hPa West 1.6 km/h 6.4 km/h 95% 0 mm 30 W/m2
06:00 12.7 °C 12.1 °C 1019.5 hPa WNW 1.6 km/h 6.4 km/h 96% 0 mm 45 W/m2
06:10 12.6 °C 12 °C 1019.9 hPa WSW 3.2 km/h 4.8 km/h 96% 0 mm 67 W/m2
06:20 12.5 °C 11.9 °C 1019.9 hPa West 1.6 km/h 6.4 km/h 96% 0 mm 85 W/m2
06:30 12.5 °C 12.2 °C 1019.9 hPa NW 3.2 km/h 8 km/h 98% 0 mm 102 W/m2
06:40 12.8 °C 12.7 °C 1019.9 hPa NW 3.2 km/h 6.4 km/h 99% 0 mm 134 W/m2
06:50 12.9 °C 12.7 °C 1019.9 hPa Calm   4.8 km/h 99% 0 mm 114 W/m2
07:00 13.2 °C 13.1 °C 1019.9 hPa West 1.6 km/h 3.2 km/h 99% 0 mm 194 W/m2
07:10 13.4 °C 13.1 °C 1019.9 hPa Calm   4.8 km/h 98% 0 mm 228 W/m2
07:20 13.7 °C 13.5 °C 1019.9 hPa West 1.6 km/h 4.8 km/h 99% 0 mm 259 W/m2
07:30 14.1 °C 13.8 °C 1019.9 hPa NW 3.2 km/h 6.4 km/h 98% 0 mm 293 W/m2
07:40 14.5 °C 14.2 °C 1019.9 hPa WNW 1.6 km/h 4.8 km/h 98% 0 mm 325 W/m2
07:50 14.9 °C 14.6 °C 1019.9 hPa West 3.2 km/h 4.8 km/h 98% 0 mm 358 W/m2
08:00 15.4 °C 14.8 °C 1019.9 hPa West 3.2 km/h 8 km/h 96% 0 mm 394 W/m2
08:10 16 °C 15 °C 1019.9 hPa West 1.6 km/h 8 km/h 94% 0 mm 430 W/m2
08:20 16.4 °C 14.9 °C 1019.9 hPa Calm   4.8 km/h 91% 0 mm 465 W/m2
08:30 16.9 °C 15.2 °C 1019.9 hPa WNW 1.6 km/h 4.8 km/h 90% 0 mm 503 W/m2
08:40 17.4 °C 15.6 °C 1019.9 hPa Calm   4.8 km/h 89% 0 mm 553 W/m2
08:50 18.1 °C 16.1 °C 1019.9 hPa NW 1.6 km/h 3.2 km/h 88% 0 mm 586 W/m2
09:00 18.9 °C 16.5 °C 1019.9 hPa West 1.6 km/h 4.8 km/h 86% 0 mm 620 W/m2
09:10 20.3 °C 17.4 °C 1019.9 hPa NNW 1.6 km/h 6.4 km/h 84% 0 mm 650 W/m2
09:20 21.6 °C 18 °C 1019.9 hPa NE 3.2 km/h 8 km/h 80% 0 mm 676 W/m2
09:30 22.4 °C 18.6 °C 1019.9 hPa NNE 1.6 km/h 11.3 km/h 79% 0 mm 701 W/m2
09:40 23.3 °C 19.2 °C 1019.5 hPa NNE 4.8 km/h 9.7 km/h 78% 0 mm 726 W/m2
09:50 24 °C 19.1 °C 1019.2 hPa NNE 3.2 km/h 9.7 km/h 74% 0 mm 749 W/m2
10:00 24.6 °C 19.2 °C 1019.5 hPa North 4.8 km/h 9.7 km/h 72% 0 mm 771 W/m2
10:10 25.3 °C 19.8 °C 1019.5 hPa North 1.6 km/h 8 km/h 72% 0 mm 792 W/m2
10:20 26 °C 19.4 °C 1019.2 hPa NNE 4.8 km/h 11.3 km/h 67% 0 mm 812 W/m2
10:30 26.3 °C 19.2 °C 1019.2 hPa NNE 4.8 km/h 9.7 km/h 65% 0 mm 831 W/m2
10:40 26.9 °C 19.2 °C 1019.2 hPa NE 8 km/h 16.1 km/h 63% 0 mm 849 W/m2
10:50 27.4 °C 18.7 °C 1019.2 hPa ESE 4.8 km/h 22.5 km/h 59% 0 mm 200 W/m2
11:00 27.8 °C 18.8 °C 1019.2 hPa ESE 9.7 km/h 20.9 km/h 58% 0 mm 880 W/m2
11:10 28.2 °C 18.3 °C 1019.2 hPa ESE 9.7 km/h 20.9 km/h 55% 0 mm 893 W/m2
11:20 28.6 °C 18.7 °C 1018.8 hPa ESE 11.3 km/h 24.1 km/h 55% 0 mm 643 W/m2
11:30 28.9 °C 18.9 °C 1018.8 hPa ESE 3.2 km/h 17.7 km/h 55% 0 mm 916 W/m2
11:40 29.4 °C 20 °C 1018.8 hPa SE 4.8 km/h 11.3 km/h 57% 0 mm 925 W/m2
11:50 29.7 °C 19.4 °C 1018.8 hPa SSE 3.2 km/h 11.3 km/h 54% 0 mm 933 W/m2
12:00 29.9 °C 19.6 °C 1018.5 hPa SE 4.8 km/h 14.5 km/h 54% 0 mm 939 W/m2
12:10 30.1 °C 17.6 °C 1018.5 hPa SE 8 km/h 14.5 km/h 47% 0 mm 943 W/m2
12:20 30 °C 18.1 °C 1018.5 hPa South 3.2 km/h 14.5 km/h 49% 0 mm 946 W/m2
12:30 30.3 °C 18.4 °C 1018.5 hPa South 8 km/h 14.5 km/h 49% 0 mm 948 W/m2
12:40 30.3 °C 17.7 °C 1018.5 hPa SSW 8 km/h 12.9 km/h 47% 0 mm 948 W/m2
12:50 30.4 °C 18.2 °C 1018.5 hPa SE 4.8 km/h 12.9 km/h 48% 0 mm 946 W/m2
13:00 30.6 °C 18.3 °C 1018.2 hPa SSE 1.6 km/h 9.7 km/h 48% 0 mm 943 W/m2
13:10 30.8 °C 18.2 °C 1018.2 hPa SSE 4.8 km/h 12.9 km/h 47% 0 mm 463 W/m2
13:20 31 °C 17.7 °C 1018.2 hPa SSW 4.8 km/h 11.3 km/h 45% 0 mm 932 W/m2
13:30 31.1 °C 17.8 °C 1017.8 hPa South 3.2 km/h 19.3 km/h 45% 0 mm 925 W/m2
13:40 31.1 °C 17.8 °C 1017.8 hPa South 1.6 km/h 12.9 km/h 45% 0 mm 916 W/m2
13:50 31.1 °C 17.4 °C 1017.8 hPa SSW 8 km/h 14.5 km/h 44% 0 mm 905 W/m2
14:00 31.3 °C 17.6 °C 1017.8 hPa South 8 km/h 11.3 km/h 44% 0 mm 893 W/m2
14:10 31.3 °C 17.9 °C 1017.8 hPa SSW 3.2 km/h 9.7 km/h 45% 0 mm 879 W/m2
14:20 31.6 °C 18.9 °C 1017.8 hPa SSE 3.2 km/h 9.7 km/h 47% 0 mm 865 W/m2
14:30 31.8 °C 18.4 °C 1017.8 hPa ESE 4.8 km/h 11.3 km/h 45% 0 mm 848 W/m2
14:40 31.8 °C 18.1 °C 1017.8 hPa South 4.8 km/h 11.3 km/h 44% 0 mm 831 W/m2
14:50 31.8 °C 19.1 °C 1017.8 hPa SE 1.6 km/h 16.1 km/h 47% 0 mm 812 W/m2
15:00 31.7 °C 17.6 °C 1017.5 hPa SSE 4.8 km/h 11.3 km/h 43% 0 mm 792 W/m2
15:10 31.9 °C 18.1 °C 1017.5 hPa SE 4.8 km/h 9.7 km/h 44% 0 mm 771 W/m2
15:20 32 °C 17.5 °C 1017.2 hPa SE 4.8 km/h 9.7 km/h 42% 0 mm 749 W/m2
15:30 32 °C 18.6 °C 1017.2 hPa SE 3.2 km/h 12.9 km/h 45% 0 mm 725 W/m2
15:40 32 °C 16.7 °C 1017.2 hPa SSE 3.2 km/h 9.7 km/h 40% 0 mm 701 W/m2
15:50 32.1 °C 16.8 °C 1017.2 hPa SSW 3.2 km/h 9.7 km/h 40% 0 mm 675 W/m2
16:00 32 °C 16.7 °C 1017.2 hPa SE 3.2 km/h 12.9 km/h 40% 0 mm 649 W/m2
16:10 32.1 °C 16.4 °C 1017.2 hPa SE 4.8 km/h 9.7 km/h 39% 0 mm 622 W/m2
16:20 32.2 °C 16.9 °C 1017.2 hPa SSW 3.2 km/h 9.7 km/h 40% 0 mm 594 W/m2
16:30 32.3 °C 16.9 °C 1017.2 hPa South 3.2 km/h 11.3 km/h 40% 0 mm 562 W/m2
16:40 32.3 °C 16.9 °C 1017.2 hPa Calm   8 km/h 40% 0 mm 526 W/m2
16:50 32.3 °C 16.6 °C 1017.2 hPa SSW 4.8 km/h 9.7 km/h 39% 0 mm 492 W/m2
17:00 32.2 °C 16.1 °C 1017.2 hPa South 4.8 km/h 8 km/h 38% 0 mm 456 W/m2
17:10 32.2 °C 16.9 °C 1017.2 hPa South 1.6 km/h 9.7 km/h 40% 0 mm 418 W/m2
17:20 32.2 °C 18.4 °C 1017.2 hPa ESE 1.6 km/h 8 km/h 44% 0 mm 382 W/m2
17:30 32.2 °C 18.1 °C 1017.2 hPa ENE 1.6 km/h 6.4 km/h 43% 0 mm 347 W/m2
17:40 32 °C 18.2 °C 1017.2 hPa South 1.6 km/h 9.7 km/h 44% 0 mm 312 W/m2
17:50 32.1 °C 18.7 °C 1017.2 hPa SSW 3.2 km/h 4.8 km/h 45% 0 mm 277 W/m2
18:00 32 °C 19.3 °C 1017.2 hPa SSW 3.2 km/h 4.8 km/h 47% 0 mm 244 W/m2
18:10 31.9 °C 19.6 °C 1017.2 hPa SSW 3.2 km/h 6.4 km/h 48% 0 mm 212 W/m2
18:20 31.8 °C 19.8 °C 1017.2 hPa SW 1.6 km/h 6.4 km/h 49% 0 mm 174 W/m2
18:30 31.4 °C 19.7 °C 1017.2 hPa SE 3.2 km/h 6.4 km/h 50% 0 mm 112 W/m2
18:40 31.1 °C 20.7 °C 1017.2 hPa East 4.8 km/h 11.3 km/h 54% 0 mm 105 W/m2
18:50 30.7 °C 20.3 °C 1017.2 hPa ENE 3.2 km/h 9.7 km/h 54% 0 mm 88 W/m2
19:00 30.4 °C 21.5 °C 1017.2 hPa NE 1.6 km/h 9.7 km/h 59% 0 mm 71 W/m2
19:10 30 °C 21.1 °C 1017.2 hPa Calm   4.8 km/h 59% 0 mm 53 W/m2
19:20 29.5 °C 20.4 °C 1017.2 hPa Calm   4.8 km/h 58% 0 mm 42 W/m2
19:30 28.9 °C 20.1 °C 1017.2 hPa NNE 1.6 km/h 4.8 km/h 59% 0 mm 28 W/m2
19:40 28.4 °C 20.4 °C 1017.5 hPa ENE 1.6 km/h 6.4 km/h 62% 0 mm 18 W/m2
19:50 27.8 °C 20.6 °C 1017.5 hPa South 1.6 km/h 4.8 km/h 65% 0 mm 8 W/m2
20:00 27.3 °C 20.6 °C 1017.5 hPa SW 1.6 km/h 4.8 km/h 67% 0 mm 3 W/m2
20:10 26.7 °C 20.3 °C 1017.5 hPa SW 1.6 km/h 4.8 km/h 68% 0 mm 0 W/m2
20:20 26.1 °C 19.9 °C 1017.8 hPa SW 3.2 km/h 6.4 km/h 69% 0 mm 0 W/m2
20:30 25.4 °C 19.6 °C 1017.8 hPa WSW 3.2 km/h 8 km/h 70% 0 mm 0 W/m2
20:40 25 °C 19.6 °C 1017.8 hPa SW 3.2 km/h 4.8 km/h 72% 0 mm 0 W/m2
20:50 24.6 °C 19.4 °C 1017.8 hPa SW 1.6 km/h 4.8 km/h 73% 0 mm 0 W/m2
21:00 24.2 °C 19.3 °C 1018.2 hPa WSW 3.2 km/h 6.4 km/h 74% 0 mm 0 W/m2
21:10 23.9 °C 19 °C 1018.2 hPa West 1.6 km/h 8 km/h 74% 0 mm 0 W/m2
21:20 23.5 °C 18.8 °C 1018.5 hPa SW 3.2 km/h 4.8 km/h 75% 0 mm 0 W/m2
21:30 23.1 °C 18.8 °C 1018.5 hPa WSW 3.2 km/h 6.4 km/h 77% 0 mm 0 W/m2
21:40 22.8 °C 18.8 °C 1018.5 hPa SW 3.2 km/h 4.8 km/h 78% 0 mm 0 W/m2
21:50 22.5 °C 18.4 °C 1018.5 hPa SW 3.2 km/h 4.8 km/h 78% 0 mm 0 W/m2
22:00 22.2 °C 18.4 °C 1018.8 hPa SW 3.2 km/h 4.8 km/h 79% 0 mm 0 W/m2
22:10 21.9 °C 18.3 °C 1018.8 hPa WSW 1.6 km/h 4.8 km/h 80% 0 mm 0 W/m2
22:20 21.6 °C 18 °C 1018.8 hPa Calm   3.2 km/h 80% 0 mm 0 W/m2
22:30 21.4 °C 17.8 °C 1018.8 hPa Calm   3.2 km/h 80% 0 mm 0 W/m2
22:40 21.1 °C 17.7 °C 1018.8 hPa SSW 3.2 km/h 6.4 km/h 81% 0 mm 0 W/m2
22:50 20.9 °C 17.5 °C 1018.8 hPa South 1.6 km/h 6.4 km/h 81% 0 mm 0 W/m2
23:00 20.6 °C 17.2 °C 1019.2 hPa SW 3.2 km/h 4.8 km/h 81% 0 mm 0 W/m2
23:10 20.4 °C 17.1 °C 1019.2 hPa SSW 1.6 km/h 6.4 km/h 81% 0 mm 0 W/m2
23:20 20.3 °C 17.3 °C 1018.8 hPa Calm   3.2 km/h 83% 0 mm 0 W/m2
23:30 20.2 °C 17.2 °C 1018.8 hPa ENE 3.2 km/h 4.8 km/h 83% 0 mm 0 W/m2
23:40 20 °C 17 °C 1019.2 hPa Calm   4.8 km/h 83% 0 mm 0 W/m2
23:50 19.8 °C 17 °C 1019.2 hPa Calm   3.2 km/h 84% 0 mm 0 W/m2
Knjazevac, Serbia
Compliments of Weather Underground - 2 mb